sensor_id;sensor_type;location;lat;lon;timestamp;temperature;humidity
33988;DHT22;37428;53.580;-1.666;2023-02-15T00:00:43;7.40;65.00
33988;DHT22;37428;53.580;-1.666;2023-02-15T00:03:45;7.50;65.80
33988;DHT22;37428;53.580;-1.666;2023-02-15T00:06:49;7.60;66.50
33988;DHT22;37428;53.580;-1.666;2023-02-15T00:09:51;7.60;67.00
33988;DHT22;37428;53.580;-1.666;2023-02-15T00:12:53;7.70;68.00
33988;DHT22;37428;53.580;-1.666;2023-02-15T00:16:02;7.70;68.20
33988;DHT22;37428;53.580;-1.666;2023-02-15T00:19:05;7.70;69.00
33988;DHT22;37428;53.580;-1.666;2023-02-15T00:22:07;7.70;69.40
33988;DHT22;37428;53.580;-1.666;2023-02-15T00:25:09;7.60;70.70
33988;DHT22;37428;53.580;-1.666;2023-02-15T00:28:11;7.60;71.00
33988;DHT22;37428;53.580;-1.666;2023-02-15T00:31:15;7.60;71.50
33988;DHT22;37428;53.580;-1.666;2023-02-15T00:34:18;7.60;71.40
33988;DHT22;37428;53.580;-1.666;2023-02-15T00:37:21;7.50;71.60
33988;DHT22;37428;53.580;-1.666;2023-02-15T00:40:23;7.50;71.80
33988;DHT22;37428;53.580;-1.666;2023-02-15T00:43:25;7.40;71.80
33988;DHT22;37428;53.580;-1.666;2023-02-15T00:46:32;7.30;72.00
33988;DHT22;37428;53.580;-1.666;2023-02-15T00:49:34;7.20;72.20
33988;DHT22;37428;53.580;-1.666;2023-02-15T00:52:36;7.10;72.10
33988;DHT22;37428;53.580;-1.666;2023-02-15T00:55:38;7.00;72.10
33988;DHT22;37428;53.580;-1.666;2023-02-15T00:58:41;7.00;72.10
33988;DHT22;37428;53.580;-1.666;2023-02-15T01:01:44;7.00;72.30
33988;DHT22;37428;53.580;-1.666;2023-02-15T01:04:46;6.90;72.30
33988;DHT22;37428;53.580;-1.666;2023-02-15T01:07:51;6.90;71.90
33988;DHT22;37428;53.580;-1.666;2023-02-15T01:10:53;6.90;71.70
33988;DHT22;37428;53.580;-1.666;2023-02-15T01:13:57;6.90;71.60
33988;DHT22;37428;53.580;-1.666;2023-02-15T01:17:01;6.80;71.80
33988;DHT22;37428;53.580;-1.666;2023-02-15T01:20:04;6.80;71.80
33988;DHT22;37428;53.580;-1.666;2023-02-15T01:23:08;6.70;71.60
33988;DHT22;37428;53.580;-1.666;2023-02-15T01:26:10;6.60;71.90
33988;DHT22;37428;53.580;-1.666;2023-02-15T01:29:12;6.50;71.70
33988;DHT22;37428;53.580;-1.666;2023-02-15T01:32:16;6.40;71.30
33988;DHT22;37428;53.580;-1.666;2023-02-15T01:35:18;6.40;71.20
33988;DHT22;37428;53.580;-1.666;2023-02-15T01:38:20;6.30;70.40
33988;DHT22;37428;53.580;-1.666;2023-02-15T01:41:22;6.30;70.30
33988;DHT22;37428;53.580;-1.666;2023-02-15T01:44:48;6.20;70.20
33988;DHT22;37428;53.580;-1.666;2023-02-15T01:47:57;6.20;70.10
33988;DHT22;37428;53.580;-1.666;2023-02-15T01:51:02;6.20;70.30
33988;DHT22;37428;53.580;-1.666;2023-02-15T01:54:10;6.20;70.70
33988;DHT22;37428;53.580;-1.666;2023-02-15T01:57:17;6.20;70.90
33988;DHT22;37428;53.580;-1.666;2023-02-15T02:00:21;6.10;70.30
33988;DHT22;37428;53.580;-1.666;2023-02-15T02:03:27;6.10;69.60
33988;DHT22;37428;53.580;-1.666;2023-02-15T02:06:32;6.10;69.30
33988;DHT22;37428;53.580;-1.666;2023-02-15T02:09:36;6.10;68.90
33988;DHT22;37428;53.580;-1.666;2023-02-15T02:12:38;6.20;67.60
33988;DHT22;37428;53.580;-1.666;2023-02-15T02:15:47;6.20;66.70
33988;DHT22;37428;53.580;-1.666;2023-02-15T02:19:03;6.20;66.40
33988;DHT22;37428;53.580;-1.666;2023-02-15T02:22:32;6.20;66.70
33988;DHT22;37428;53.580;-1.666;2023-02-15T02:26:03;6.20;66.10
33988;DHT22;37428;53.580;-1.666;2023-02-15T02:29:32;6.20;66.40
33988;DHT22;37428;53.580;-1.666;2023-02-15T02:32:53;6.20;66.40
33988;DHT22;37428;53.580;-1.666;2023-02-15T02:36:18;6.10;67.10
33988;DHT22;37428;53.580;-1.666;2023-02-15T02:39:30;6.10;66.70
33988;DHT22;37428;53.580;-1.666;2023-02-15T02:42:37;6.00;66.30
33988;DHT22;37428;53.580;-1.666;2023-02-15T02:45:44;6.00;66.40
33988;DHT22;37428;53.580;-1.666;2023-02-15T02:48:52;5.90;66.70
33988;DHT22;37428;53.580;-1.666;2023-02-15T02:51:58;5.90;66.40
33988;DHT22;37428;53.580;-1.666;2023-02-15T02:55:01;5.80;66.50
33988;DHT22;37428;53.580;-1.666;2023-02-15T02:58:08;5.80;65.20
33988;DHT22;37428;53.580;-1.666;2023-02-15T03:01:13;5.90;64.40
33988;DHT22;37428;53.580;-1.666;2023-02-15T03:04:20;6.00;63.50
33988;DHT22;37428;53.580;-1.666;2023-02-15T03:07:26;6.10;63.00
33988;DHT22;37428;53.580;-1.666;2023-02-15T03:10:29;6.20;62.80
33988;DHT22;37428;53.580;-1.666;2023-02-15T03:13:32;6.10;62.70
33988;DHT22;37428;53.580;-1.666;2023-02-15T03:16:34;6.00;63.30
33988;DHT22;37428;53.580;-1.666;2023-02-15T03:19:39;6.00;64.20
33988;DHT22;37428;53.580;-1.666;2023-02-15T03:22:46;6.00;64.10
33988;DHT22;37428;53.580;-1.666;2023-02-15T03:25:52;6.00;63.80
33988;DHT22;37428;53.580;-1.666;2023-02-15T03:28:59;5.90;64.00
33988;DHT22;37428;53.580;-1.666;2023-02-15T03:32:04;5.90;64.20
33988;DHT22;37428;53.580;-1.666;2023-02-15T03:35:13;5.90;64.60
33988;DHT22;37428;53.580;-1.666;2023-02-15T03:38:20;5.90;64.00
33988;DHT22;37428;53.580;-1.666;2023-02-15T03:41:27;5.90;64.70
33988;DHT22;37428;53.580;-1.666;2023-02-15T03:44:32;5.80;65.20
33988;DHT22;37428;53.580;-1.666;2023-02-15T03:47:38;5.80;65.60
33988;DHT22;37428;53.580;-1.666;2023-02-15T03:50:43;5.80;65.00
33988;DHT22;37428;53.580;-1.666;2023-02-15T03:54:07;5.80;64.60
33988;DHT22;37428;53.580;-1.666;2023-02-15T03:57:13;5.70;64.80
33988;DHT22;37428;53.580;-1.666;2023-02-15T04:00:36;5.70;65.10
33988;DHT22;37428;53.580;-1.666;2023-02-15T04:04:02;5.70;65.90
33988;DHT22;37428;53.580;-1.666;2023-02-15T04:07:10;5.60;66.00
33988;DHT22;37428;53.580;-1.666;2023-02-15T04:10:13;5.70;66.30
33988;DHT22;37428;53.580;-1.666;2023-02-15T04:13:32;5.60;66.80
33988;DHT22;37428;53.580;-1.666;2023-02-15T04:16:34;5.60;66.90
33988;DHT22;37428;53.580;-1.666;2023-02-15T04:19:35;5.60;67.90
33988;DHT22;37428;53.580;-1.666;2023-02-15T04:22:56;5.60;67.60
33988;DHT22;37428;53.580;-1.666;2023-02-15T04:26:16;5.60;67.80
33988;DHT22;37428;53.580;-1.666;2023-02-15T04:29:18;5.50;68.20
33988;DHT22;37428;53.580;-1.666;2023-02-15T04:32:20;5.50;68.30
33988;DHT22;37428;53.580;-1.666;2023-02-15T04:35:22;5.50;68.50
33988;DHT22;37428;53.580;-1.666;2023-02-15T04:38:25;5.50;68.30
33988;DHT22;37428;53.580;-1.666;2023-02-15T04:41:27;5.50;68.10
33988;DHT22;37428;53.580;-1.666;2023-02-15T04:44:31;5.50;68.30
33988;DHT22;37428;53.580;-1.666;2023-02-15T04:47:34;5.50;68.10
33988;DHT22;37428;53.580;-1.666;2023-02-15T04:50:37;5.50;68.00
33988;DHT22;37428;53.580;-1.666;2023-02-15T04:53:40;5.50;68.50
33988;DHT22;37428;53.580;-1.666;2023-02-15T04:56:45;5.40;68.60
33988;DHT22;37428;53.580;-1.666;2023-02-15T04:59:47;5.30;69.10
33988;DHT22;37428;53.580;-1.666;2023-02-15T05:02:49;5.30;69.40
33988;DHT22;37428;53.580;-1.666;2023-02-15T05:05:52;5.20;69.70
33988;DHT22;37428;53.580;-1.666;2023-02-15T05:08:56;5.10;70.10
33988;DHT22;37428;53.580;-1.666;2023-02-15T05:11:59;5.10;70.50
33988;DHT22;37428;53.580;-1.666;2023-02-15T05:15:01;5.10;70.50
33988;DHT22;37428;53.580;-1.666;2023-02-15T05:18:04;5.10;70.70
33988;DHT22;37428;53.580;-1.666;2023-02-15T05:21:07;5.10;70.60
33988;DHT22;37428;53.580;-1.666;2023-02-15T05:24:10;5.10;70.60
33988;DHT22;37428;53.580;-1.666;2023-02-15T05:27:44;5.10;70.30
33988;DHT22;37428;53.580;-1.666;2023-02-15T05:31:06;5.10;70.50
33988;DHT22;37428;53.580;-1.666;2023-02-15T05:34:11;5.10;70.70
33988;DHT22;37428;53.580;-1.666;2023-02-15T05:37:13;5.10;70.80
33988;DHT22;37428;53.580;-1.666;2023-02-15T05:40:16;5.10;71.00
33988;DHT22;37428;53.580;-1.666;2023-02-15T05:43:19;5.10;70.60
33988;DHT22;37428;53.580;-1.666;2023-02-15T05:46:21;5.10;70.90
33988;DHT22;37428;53.580;-1.666;2023-02-15T05:49:25;5.00;71.20
33988;DHT22;37428;53.580;-1.666;2023-02-15T05:52:27;5.00;70.60
33988;DHT22;37428;53.580;-1.666;2023-02-15T05:55:31;5.00;71.00
33988;DHT22;37428;53.580;-1.666;2023-02-15T05:58:34;5.00;71.10
33988;DHT22;37428;53.580;-1.666;2023-02-15T06:01:37;5.00;71.10
33988;DHT22;37428;53.580;-1.666;2023-02-15T06:04:39;5.00;71.40
33988;DHT22;37428;53.580;-1.666;2023-02-15T06:07:43;5.00;71.40
33988;DHT22;37428;53.580;-1.666;2023-02-15T06:10:47;5.00;71.60
33988;DHT22;37428;53.580;-1.666;2023-02-15T06:13:49;5.00;71.40
33988;DHT22;37428;53.580;-1.666;2023-02-15T06:16:51;5.00;71.60
33988;DHT22;37428;53.580;-1.666;2023-02-15T06:19:54;5.00;71.70
33988;DHT22;37428;53.580;-1.666;2023-02-15T06:23:00;5.00;71.90
33988;DHT22;37428;53.580;-1.666;2023-02-15T06:26:04;4.90;71.90
33988;DHT22;37428;53.580;-1.666;2023-02-15T06:29:07;4.90;72.10
33988;DHT22;37428;53.580;-1.666;2023-02-15T06:32:09;4.90;72.00
33988;DHT22;37428;53.580;-1.666;2023-02-15T06:35:14;4.90;71.60
33988;DHT22;37428;53.580;-1.666;2023-02-15T06:38:17;5.00;71.00
33988;DHT22;37428;53.580;-1.666;2023-02-15T06:41:20;5.10;69.80
33988;DHT22;37428;53.580;-1.666;2023-02-15T06:44:23;5.30;69.50
33988;DHT22;37428;53.580;-1.666;2023-02-15T06:47:25;5.30;69.20
33988;DHT22;37428;53.580;-1.666;2023-02-15T06:50:34;5.30;69.30
33988;DHT22;37428;53.580;-1.666;2023-02-15T06:53:36;5.20;69.50
33988;DHT22;37428;53.580;-1.666;2023-02-15T06:56:44;5.20;69.80
33988;DHT22;37428;53.580;-1.666;2023-02-15T06:59:47;5.10;69.80
33988;DHT22;37428;53.580;-1.666;2023-02-15T07:02:53;5.20;70.20
33988;DHT22;37428;53.580;-1.666;2023-02-15T07:06:01;5.30;70.00
33988;DHT22;37428;53.580;-1.666;2023-02-15T07:09:03;5.60;69.50
33988;DHT22;37428;53.580;-1.666;2023-02-15T07:12:07;5.80;68.90
33988;DHT22;37428;53.580;-1.666;2023-02-15T07:15:27;6.10;68.10
33988;DHT22;37428;53.580;-1.666;2023-02-15T07:18:29;6.30;67.20
33988;DHT22;37428;53.580;-1.666;2023-02-15T07:21:31;6.50;66.70
33988;DHT22;37428;53.580;-1.666;2023-02-15T07:24:33;6.60;66.40
33988;DHT22;37428;53.580;-1.666;2023-02-15T07:27:37;6.70;66.20
33988;DHT22;37428;53.580;-1.666;2023-02-15T07:30:39;6.70;66.30
33988;DHT22;37428;53.580;-1.666;2023-02-15T07:33:42;6.70;66.20
33988;DHT22;37428;53.580;-1.666;2023-02-15T07:36:44;6.80;66.00
33988;DHT22;37428;53.580;-1.666;2023-02-15T07:39:46;6.90;65.70
33988;DHT22;37428;53.580;-1.666;2023-02-15T07:42:49;6.90;65.80
33988;DHT22;37428;53.580;-1.666;2023-02-15T07:45:53;6.90;65.50
33988;DHT22;37428;53.580;-1.666;2023-02-15T07:48:56;7.00;65.40
33988;DHT22;37428;53.580;-1.666;2023-02-15T07:51:58;7.00;65.40
33988;DHT22;37428;53.580;-1.666;2023-02-15T07:55:02;7.00;65.60
33988;DHT22;37428;53.580;-1.666;2023-02-15T07:58:05;7.00;65.50
33988;DHT22;37428;53.580;-1.666;2023-02-15T08:01:07;7.00;65.40
33988;DHT22;37428;53.580;-1.666;2023-02-15T08:04:11;7.00;65.30
33988;DHT22;37428;53.580;-1.666;2023-02-15T08:07:13;6.90;65.50
33988;DHT22;37428;53.580;-1.666;2023-02-15T08:10:16;6.90;65.50
33988;DHT22;37428;53.580;-1.666;2023-02-15T08:13:39;6.90;65.70
33988;DHT22;37428;53.580;-1.666;2023-02-15T08:16:54;6.90;65.90
33988;DHT22;37428;53.580;-1.666;2023-02-15T08:19:57;7.00;65.80
33988;DHT22;37428;53.580;-1.666;2023-02-15T08:22:59;7.00;66.00
33988;DHT22;37428;53.580;-1.666;2023-02-15T08:26:01;7.00;66.30
33988;DHT22;37428;53.580;-1.666;2023-02-15T08:29:09;7.00;66.70
33988;DHT22;37428;53.580;-1.666;2023-02-15T08:32:13;6.90;67.00
33988;DHT22;37428;53.580;-1.666;2023-02-15T08:35:15;7.00;67.10
33988;DHT22;37428;53.580;-1.666;2023-02-15T08:38:17;7.10;66.60
33988;DHT22;37428;53.580;-1.666;2023-02-15T08:41:21;7.20;66.70
33988;DHT22;37428;53.580;-1.666;2023-02-15T08:44:25;7.30;66.30
33988;DHT22;37428;53.580;-1.666;2023-02-15T08:47:33;7.50;65.70
33988;DHT22;37428;53.580;-1.666;2023-02-15T08:50:35;7.60;65.60
33988;DHT22;37428;53.580;-1.666;2023-02-15T08:53:39;7.70;64.90
33988;DHT22;37428;53.580;-1.666;2023-02-15T08:56:42;7.90;64.90
33988;DHT22;37428;53.580;-1.666;2023-02-15T08:59:46;8.00;63.90
33988;DHT22;37428;53.580;-1.666;2023-02-15T09:02:50;8.20;63.10
33988;DHT22;37428;53.580;-1.666;2023-02-15T09:05:59;8.30;62.80
33988;DHT22;37428;53.580;-1.666;2023-02-15T09:09:02;8.40;62.40
33988;DHT22;37428;53.580;-1.666;2023-02-15T09:12:04;8.60;61.90
33988;DHT22;37428;53.580;-1.666;2023-02-15T09:15:08;8.70;61.50
33988;DHT22;37428;53.580;-1.666;2023-02-15T09:18:11;8.90;60.70
33988;DHT22;37428;53.580;-1.666;2023-02-15T09:21:19;9.10;59.80
33988;DHT22;37428;53.580;-1.666;2023-02-15T09:24:22;9.40;58.30
33988;DHT22;37428;53.580;-1.666;2023-02-15T09:27:24;9.70;57.70
33988;DHT22;37428;53.580;-1.666;2023-02-15T09:30:28;9.90;56.80
33988;DHT22;37428;53.580;-1.666;2023-02-15T09:33:33;10.20;56.50
33988;DHT22;37428;53.580;-1.666;2023-02-15T09:36:36;10.40;56.10
33988;DHT22;37428;53.580;-1.666;2023-02-15T09:39:42;10.70;54.30
33988;DHT22;37428;53.580;-1.666;2023-02-15T09:46:27;11.20;53.50
33988;DHT22;37428;53.580;-1.666;2023-02-15T09:49:38;11.40;53.10
33988;DHT22;37428;53.580;-1.666;2023-02-15T09:52:54;11.50;53.00
33988;DHT22;37428;53.580;-1.666;2023-02-15T09:56:05;11.60;53.40
33988;DHT22;37428;53.580;-1.666;2023-02-15T09:59:14;11.70;53.40
33988;DHT22;37428;53.580;-1.666;2023-02-15T10:02:31;11.80;53.20
33988;DHT22;37428;53.580;-1.666;2023-02-15T10:05:47;11.80;52.80
33988;DHT22;37428;53.580;-1.666;2023-02-15T10:09:02;11.90;52.80
33988;DHT22;37428;53.580;-1.666;2023-02-15T10:12:19;12.10;52.20
33988;DHT22;37428;53.580;-1.666;2023-02-15T10:15:41;12.10;51.90
33988;DHT22;37428;53.580;-1.666;2023-02-15T10:18:59;12.20;52.10
33988;DHT22;37428;53.580;-1.666;2023-02-15T10:22:15;12.30;52.70
33988;DHT22;37428;53.580;-1.666;2023-02-15T10:25:31;12.30;52.50
33988;DHT22;37428;53.580;-1.666;2023-02-15T10:28:42;12.40;52.40
33988;DHT22;37428;53.580;-1.666;2023-02-15T10:31:48;12.50;52.90
33988;DHT22;37428;53.580;-1.666;2023-02-15T10:34:56;12.60;52.80
33988;DHT22;37428;53.580;-1.666;2023-02-15T10:38:20;12.70;52.60
33988;DHT22;37428;53.580;-1.666;2023-02-15T10:41:34;12.70;52.80
33988;DHT22;37428;53.580;-1.666;2023-02-15T10:44:58;12.60;53.20
33988;DHT22;37428;53.580;-1.666;2023-02-15T10:48:20;12.50;53.80
33988;DHT22;37428;53.580;-1.666;2023-02-15T10:51:33;12.60;54.40
33988;DHT22;37428;53.580;-1.666;2023-02-15T10:54:44;12.50;54.70
33988;DHT22;37428;53.580;-1.666;2023-02-15T10:57:55;12.40;54.00
33988;DHT22;37428;53.580;-1.666;2023-02-15T11:01:10;12.30;55.00
33988;DHT22;37428;53.580;-1.666;2023-02-15T11:04:39;12.30;55.20
33988;DHT22;37428;53.580;-1.666;2023-02-15T11:07:46;12.40;54.30
33988;DHT22;37428;53.580;-1.666;2023-02-15T11:10:52;12.70;54.10
33988;DHT22;37428;53.580;-1.666;2023-02-15T11:13:59;12.90;53.50
33988;DHT22;37428;53.580;-1.666;2023-02-15T11:17:05;13.20;53.00
33988;DHT22;37428;53.580;-1.666;2023-02-15T11:20:19;13.50;52.50
33988;DHT22;37428;53.580;-1.666;2023-02-15T11:23:26;13.50;51.70
33988;DHT22;37428;53.580;-1.666;2023-02-15T11:26:33;13.60;52.10
33988;DHT22;37428;53.580;-1.666;2023-02-15T11:29:38;13.60;52.50
33988;DHT22;37428;53.580;-1.666;2023-02-15T11:32:44;13.60;52.70
33988;DHT22;37428;53.580;-1.666;2023-02-15T11:35:50;13.70;52.80
33988;DHT22;37428;53.580;-1.666;2023-02-15T11:38:59;13.90;53.00
33988;DHT22;37428;53.580;-1.666;2023-02-15T11:42:09;14.00;53.40
33988;DHT22;37428;53.580;-1.666;2023-02-15T11:45:21;14.10;54.20
33988;DHT22;37428;53.580;-1.666;2023-02-15T11:48:25;14.20;54.20
33988;DHT22;37428;53.580;-1.666;2023-02-15T11:51:27;14.40;55.00
33988;DHT22;37428;53.580;-1.666;2023-02-15T11:54:34;14.50;54.30
33988;DHT22;37428;53.580;-1.666;2023-02-15T11:57:40;14.70;54.60
33988;DHT22;37428;53.580;-1.666;2023-02-15T12:00:45;14.90;54.50
33988;DHT22;37428;53.580;-1.666;2023-02-15T12:03:49;15.00;54.40
33988;DHT22;37428;53.580;-1.666;2023-02-15T12:06:55;15.10;54.40
33988;DHT22;37428;53.580;-1.666;2023-02-15T12:10:04;15.20;53.50
33988;DHT22;37428;53.580;-1.666;2023-02-15T12:13:14;15.00;54.40
33988;DHT22;37428;53.580;-1.666;2023-02-15T12:16:16;15.10;54.60
33988;DHT22;37428;53.580;-1.666;2023-02-15T12:19:29;15.10;55.30
33988;DHT22;37428;53.580;-1.666;2023-02-15T12:22:34;15.20;55.20
33988;DHT22;37428;53.580;-1.666;2023-02-15T12:25:41;15.00;55.20
33988;DHT22;37428;53.580;-1.666;2023-02-15T12:28:49;15.00;55.20
33988;DHT22;37428;53.580;-1.666;2023-02-15T12:31:52;14.90;55.30
33988;DHT22;37428;53.580;-1.666;2023-02-15T12:35:00;14.90;56.10
33988;DHT22;37428;53.580;-1.666;2023-02-15T12:38:09;14.60;56.60
33988;DHT22;37428;53.580;-1.666;2023-02-15T12:41:25;14.50;57.60
33988;DHT22;37428;53.580;-1.666;2023-02-15T12:44:29;14.00;58.30
33988;DHT22;37428;53.580;-1.666;2023-02-15T12:47:31;13.60;60.10
33988;DHT22;37428;53.580;-1.666;2023-02-15T12:50:34;13.20;61.20
33988;DHT22;37428;53.580;-1.666;2023-02-15T12:53:36;13.00;62.30
33988;DHT22;37428;53.580;-1.666;2023-02-15T12:56:40;13.00;63.50
33988;DHT22;37428;53.580;-1.666;2023-02-15T12:59:53;12.90;65.30
33988;DHT22;37428;53.580;-1.666;2023-02-15T13:02:56;12.70;66.70
33988;DHT22;37428;53.580;-1.666;2023-02-15T13:05:59;12.50;67.90
33988;DHT22;37428;53.580;-1.666;2023-02-15T13:09:15;12.20;69.70
33988;DHT22;37428;53.580;-1.666;2023-02-15T13:12:21;11.90;71.30
33988;DHT22;37428;53.580;-1.666;2023-02-15T13:15:34;11.70;72.40
33988;DHT22;37428;53.580;-1.666;2023-02-15T13:18:39;11.50;72.60
33988;DHT22;37428;53.580;-1.666;2023-02-15T13:21:44;11.30;72.90
33988;DHT22;37428;53.580;-1.666;2023-02-15T13:24:50;11.20;73.50
33988;DHT22;37428;53.580;-1.666;2023-02-15T13:27:57;10.90;73.90
33988;DHT22;37428;53.580;-1.666;2023-02-15T13:31:00;10.80;74.70
33988;DHT22;37428;53.580;-1.666;2023-02-15T13:34:11;10.60;76.30
33988;DHT22;37428;53.580;-1.666;2023-02-15T13:37:18;10.50;77.40
33988;DHT22;37428;53.580;-1.666;2023-02-15T13:40:25;10.40;77.40
33988;DHT22;37428;53.580;-1.666;2023-02-15T13:43:42;10.30;77.90
33988;DHT22;37428;53.580;-1.666;2023-02-15T13:46:56;10.30;77.30
33988;DHT22;37428;53.580;-1.666;2023-02-15T13:50:20;10.30;76.70
33988;DHT22;37428;53.580;-1.666;2023-02-15T13:53:56;10.20;76.40
33988;DHT22;37428;53.580;-1.666;2023-02-15T14:00:35;10.10;77.10
33988;DHT22;37428;53.580;-1.666;2023-02-15T14:04:06;10.00;77.90
33988;DHT22;37428;53.580;-1.666;2023-02-15T14:07:43;10.00;77.80
33988;DHT22;37428;53.580;-1.666;2023-02-15T14:10:57;9.90;78.20
33988;DHT22;37428;53.580;-1.666;2023-02-15T14:17:54;9.90;78.50
33988;DHT22;37428;53.580;-1.666;2023-02-15T14:21:05;9.70;78.10
33988;DHT22;37428;53.580;-1.666;2023-02-15T14:24:18;9.70;78.80
33988;DHT22;37428;53.580;-1.666;2023-02-15T14:27:27;9.60;78.70
33988;DHT22;37428;53.580;-1.666;2023-02-15T14:30:38;9.70;79.20
33988;DHT22;37428;53.580;-1.666;2023-02-15T14:33:49;9.70;79.00
33988;DHT22;37428;53.580;-1.666;2023-02-15T14:36:55;9.80;79.00
33988;DHT22;37428;53.580;-1.666;2023-02-15T14:40:02;9.90;78.40
33988;DHT22;37428;53.580;-1.666;2023-02-15T14:43:31;9.80;78.30
33988;DHT22;37428;53.580;-1.666;2023-02-15T14:46:38;9.80;77.80
33988;DHT22;37428;53.580;-1.666;2023-02-15T14:49:45;9.80;78.00
33988;DHT22;37428;53.580;-1.666;2023-02-15T14:53:22;9.80;78.00
33988;DHT22;37428;53.580;-1.666;2023-02-15T14:56:26;9.70;78.50
33988;DHT22;37428;53.580;-1.666;2023-02-15T14:59:36;9.70;78.80
33988;DHT22;37428;53.580;-1.666;2023-02-15T15:02:45;9.90;78.60
33988;DHT22;37428;53.580;-1.666;2023-02-15T15:05:51;9.90;77.90
33988;DHT22;37428;53.580;-1.666;2023-02-15T15:08:58;9.90;77.80
33988;DHT22;37428;53.580;-1.666;2023-02-15T15:15:34;9.60;78.40
33988;DHT22;37428;53.580;-1.666;2023-02-15T15:18:48;9.60;78.50
33988;DHT22;37428;53.580;-1.666;2023-02-15T15:21:56;9.60;78.50
33988;DHT22;37428;53.580;-1.666;2023-02-15T15:25:08;9.60;77.70
33988;DHT22;37428;53.580;-1.666;2023-02-15T15:31:48;9.50;76.70
33988;DHT22;37428;53.580;-1.666;2023-02-15T15:35:09;9.50;77.30
33988;DHT22;37428;53.580;-1.666;2023-02-15T15:38:28;9.60;76.50
33988;DHT22;37428;53.580;-1.666;2023-02-15T15:41:41;9.70;75.30
33988;DHT22;37428;53.580;-1.666;2023-02-15T15:48:30;9.50;73.70
33988;DHT22;37428;53.580;-1.666;2023-02-15T15:51:34;9.40;73.40
33988;DHT22;37428;53.580;-1.666;2023-02-15T15:54:40;9.40;73.70
33988;DHT22;37428;53.580;-1.666;2023-02-15T15:57:44;9.40;73.50
33988;DHT22;37428;53.580;-1.666;2023-02-15T16:00:52;9.40;72.90
33988;DHT22;37428;53.580;-1.666;2023-02-15T16:03:58;9.30;72.90
33988;DHT22;37428;53.580;-1.666;2023-02-15T16:07:16;9.30;73.00
33988;DHT22;37428;53.580;-1.666;2023-02-15T16:10:26;9.20;73.00
33988;DHT22;37428;53.580;-1.666;2023-02-15T16:13:28;9.10;73.40
33988;DHT22;37428;53.580;-1.666;2023-02-15T16:16:31;9.10;73.30
33988;DHT22;37428;53.580;-1.666;2023-02-15T16:19:35;9.00;73.70
33988;DHT22;37428;53.580;-1.666;2023-02-15T16:22:38;9.00;74.00
33988;DHT22;37428;53.580;-1.666;2023-02-15T16:25:43;9.00;74.20
33988;DHT22;37428;53.580;-1.666;2023-02-15T16:28:49;8.90;74.20
33988;DHT22;37428;53.580;-1.666;2023-02-15T16:31:58;9.00;74.20
33988;DHT22;37428;53.580;-1.666;2023-02-15T16:35:02;8.90;74.00
33988;DHT22;37428;53.580;-1.666;2023-02-15T16:38:08;8.90;74.30
33988;DHT22;37428;53.580;-1.666;2023-02-15T16:41:13;8.80;74.30
33988;DHT22;37428;53.580;-1.666;2023-02-15T16:44:18;8.80;74.70
33988;DHT22;37428;53.580;-1.666;2023-02-15T16:47:24;8.70;74.80
33988;DHT22;37428;53.580;-1.666;2023-02-15T16:50:30;8.70;75.00
33988;DHT22;37428;53.580;-1.666;2023-02-15T16:53:33;8.70;75.10
33988;DHT22;37428;53.580;-1.666;2023-02-15T16:56:37;8.70;75.30
33988;DHT22;37428;53.580;-1.666;2023-02-15T16:59:46;8.70;74.90
33988;DHT22;37428;53.580;-1.666;2023-02-15T17:02:56;8.60;75.00
33988;DHT22;37428;53.580;-1.666;2023-02-15T17:06:02;8.70;75.10
33988;DHT22;37428;53.580;-1.666;2023-02-15T17:09:06;8.60;75.20
33988;DHT22;37428;53.580;-1.666;2023-02-15T17:12:45;8.60;75.30
33988;DHT22;37428;53.580;-1.666;2023-02-15T17:16:20;8.60;75.60
33988;DHT22;37428;53.580;-1.666;2023-02-15T17:19:26;8.50;75.80
33988;DHT22;37428;53.580;-1.666;2023-02-15T17:22:29;8.50;76.00
33988;DHT22;37428;53.580;-1.666;2023-02-15T17:25:35;8.50;76.30
33988;DHT22;37428;53.580;-1.666;2023-02-15T17:28:45;8.50;76.40
33988;DHT22;37428;53.580;-1.666;2023-02-15T17:31:49;8.40;76.60
33988;DHT22;37428;53.580;-1.666;2023-02-15T17:35:22;8.30;76.50
33988;DHT22;37428;53.580;-1.666;2023-02-15T17:38:25;8.30;76.90
33988;DHT22;37428;53.580;-1.666;2023-02-15T17:41:30;8.30;77.30
33988;DHT22;37428;53.580;-1.666;2023-02-15T17:44:36;8.20;77.20
33988;DHT22;37428;53.580;-1.666;2023-02-15T17:47:38;8.20;77.70
33988;DHT22;37428;53.580;-1.666;2023-02-15T17:50:40;8.20;78.10
33988;DHT22;37428;53.580;-1.666;2023-02-15T17:53:43;8.10;78.70
33988;DHT22;37428;53.580;-1.666;2023-02-15T17:57:11;8.10;79.30
33988;DHT22;37428;53.580;-1.666;2023-02-15T18:00:17;8.00;79.80
33988;DHT22;37428;53.580;-1.666;2023-02-15T18:03:40;8.00;80.10
33988;DHT22;37428;53.580;-1.666;2023-02-15T18:07:00;8.00;80.30
33988;DHT22;37428;53.580;-1.666;2023-02-15T18:10:21;8.00;80.70
33988;DHT22;37428;53.580;-1.666;2023-02-15T18:13:40;8.00;81.00
33988;DHT22;37428;53.580;-1.666;2023-02-15T18:16:44;8.00;81.20
33988;DHT22;37428;53.580;-1.666;2023-02-15T18:19:46;7.90;81.00
33988;DHT22;37428;53.580;-1.666;2023-02-15T18:22:50;7.90;80.70
33988;DHT22;37428;53.580;-1.666;2023-02-15T18:25:53;7.90;80.30
33988;DHT22;37428;53.580;-1.666;2023-02-15T18:28:56;7.80;79.90
33988;DHT22;37428;53.580;-1.666;2023-02-15T18:32:00;7.90;79.90
33988;DHT22;37428;53.580;-1.666;2023-02-15T18:35:03;7.90;79.70
33988;DHT22;37428;53.580;-1.666;2023-02-15T18:38:08;7.90;79.40
33988;DHT22;37428;53.580;-1.666;2023-02-15T18:41:16;7.90;79.70
33988;DHT22;37428;53.580;-1.666;2023-02-15T18:44:19;7.90;79.30
33988;DHT22;37428;53.580;-1.666;2023-02-15T18:47:22;7.80;79.30
33988;DHT22;37428;53.580;-1.666;2023-02-15T18:50:27;7.80;79.10
33988;DHT22;37428;53.580;-1.666;2023-02-15T18:53:31;7.70;79.20
33988;DHT22;37428;53.580;-1.666;2023-02-15T18:56:33;7.70;79.10
33988;DHT22;37428;53.580;-1.666;2023-02-15T18:59:35;7.60;79.30
33988;DHT22;37428;53.580;-1.666;2023-02-15T19:02:39;7.70;79.40
33988;DHT22;37428;53.580;-1.666;2023-02-15T19:05:43;7.70;79.20
33988;DHT22;37428;53.580;-1.666;2023-02-15T19:08:47;7.60;79.40
33988;DHT22;37428;53.580;-1.666;2023-02-15T19:11:52;7.60;79.50
33988;DHT22;37428;53.580;-1.666;2023-02-15T19:14:54;7.60;79.60
33988;DHT22;37428;53.580;-1.666;2023-02-15T19:17:59;7.50;79.80
33988;DHT22;37428;53.580;-1.666;2023-02-15T19:21:01;7.50;80.10
33988;DHT22;37428;53.580;-1.666;2023-02-15T19:24:08;7.40;79.80
33988;DHT22;37428;53.580;-1.666;2023-02-15T19:27:19;7.40;79.90
33988;DHT22;37428;53.580;-1.666;2023-02-15T19:30:24;7.30;80.30
33988;DHT22;37428;53.580;-1.666;2023-02-15T19:33:30;7.30;80.90
33988;DHT22;37428;53.580;-1.666;2023-02-15T19:36:32;7.30;81.30
33988;DHT22;37428;53.580;-1.666;2023-02-15T19:39:37;7.30;81.40
33988;DHT22;37428;53.580;-1.666;2023-02-15T19:42:40;7.30;81.50
33988;DHT22;37428;53.580;-1.666;2023-02-15T19:45:42;7.20;81.60
33988;DHT22;37428;53.580;-1.666;2023-02-15T19:48:46;7.20;81.90
33988;DHT22;37428;53.580;-1.666;2023-02-15T19:51:48;7.10;82.10
33988;DHT22;37428;53.580;-1.666;2023-02-15T19:54:53;7.10;82.00
33988;DHT22;37428;53.580;-1.666;2023-02-15T19:57:57;7.20;82.20
33988;DHT22;37428;53.580;-1.666;2023-02-15T20:00:59;7.20;82.00